sensor_id;sensor_type;location;lat;lon;timestamp;temperature;humidity
73875;HTU21D;62209;47.568;7.558;2023-04-25T00:11:02;9.15;90.82
73875;HTU21D;62209;47.568;7.558;2023-04-25T00:26:08;8.82;91.17
73875;HTU21D;62209;47.568;7.558;2023-04-25T00:41:14;8.58;92.37
73875;HTU21D;62209;47.568;7.558;2023-04-25T00:56:20;8.58;92.82
73875;HTU21D;62209;47.568;7.558;2023-04-25T01:11:26;8.32;92.44
73875;HTU21D;62209;47.568;7.558;2023-04-25T01:26:31;8.30;92.50
73875;HTU21D;62209;47.568;7.558;2023-04-25T01:41:38;8.13;93.80
73875;HTU21D;62209;47.568;7.558;2023-04-25T01:56:49;7.73;94.33
73875;HTU21D;62209;47.568;7.558;2023-04-25T02:11:55;7.24;94.68
73875;HTU21D;62209;47.568;7.558;2023-04-25T02:27:01;7.10;94.62
73875;HTU21D;62209;47.568;7.558;2023-04-25T02:42:06;6.73;95.91
73875;HTU21D;62209;47.568;7.558;2023-04-25T02:57:12;6.68;97.26
73875;HTU21D;62209;47.568;7.558;2023-04-25T03:12:18;6.70;97.39
73875;HTU21D;62209;47.568;7.558;2023-04-25T03:27:24;6.74;96.46
73875;HTU21D;62209;47.568;7.558;2023-04-25T03:42:29;7.23;96.01
73875;HTU21D;62209;47.568;7.558;2023-04-25T03:57:35;7.43;95.78
73875;HTU21D;62209;47.568;7.558;2023-04-25T04:12:40;7.43;96.53
73875;HTU21D;62209;47.568;7.558;2023-04-25T04:27:46;7.63;96.01
73875;HTU21D;62209;47.568;7.558;2023-04-25T04:42:55;7.86;94.88
73875;HTU21D;62209;47.568;7.558;2023-04-25T04:58:02;6.85;103.37
73875;HTU21D;62209;47.568;7.558;2023-04-25T05:13:08;6.67;103.17
73875;HTU21D;62209;47.568;7.558;2023-04-25T05:28:13;6.81;101.77
73875;HTU21D;62209;47.568;7.558;2023-04-25T05:43:19;6.79;101.33
73875;HTU21D;62209;47.568;7.558;2023-04-25T05:58:25;6.88;101.05
73875;HTU21D;62209;47.568;7.558;2023-04-25T06:13:31;7.12;100.90
73875;HTU21D;62209;47.568;7.558;2023-04-25T06:28:37;7.42;101.24
73875;HTU21D;62209;47.568;7.558;2023-04-25T06:43:42;7.64;99.71
73875;HTU21D;62209;47.568;7.558;2023-04-25T06:58:48;7.79;101.24
73875;HTU21D;62209;47.568;7.558;2023-04-25T07:13:54;7.79;102.18
73875;HTU21D;62209;47.568;7.558;2023-04-25T07:29:00;7.75;103.11
73875;HTU21D;62209;47.568;7.558;2023-04-25T07:44:06;8.01;102.22
73875;HTU21D;62209;47.568;7.558;2023-04-25T07:59:11;8.38;101.38
73875;HTU21D;62209;47.568;7.558;2023-04-25T08:14:17;8.44;99.57
73875;HTU21D;62209;47.568;7.558;2023-04-25T08:29:23;8.57;99.51
73875;HTU21D;62209;47.568;7.558;2023-04-25T08:44:29;8.72;99.49
73875;HTU21D;62209;47.568;7.558;2023-04-25T08:59:37;9.26;97.29
73875;HTU21D;62209;47.568;7.558;2023-04-25T09:14:43;10.06;93.59
73875;HTU21D;62209;47.568;7.558;2023-04-25T09:30:10;10.96;91.66
73875;HTU21D;62209;47.568;7.558;2023-04-25T09:45:20;10.67;90.08
73875;HTU21D;62209;47.568;7.558;2023-04-25T10:00:25;11.40;88.50
73875;HTU21D;62209;47.568;7.558;2023-04-25T10:15:31;12.82;84.04
73875;HTU21D;62209;47.568;7.558;2023-04-25T10:46:03;15.48;77.95
73875;HTU21D;62209;47.568;7.558;2023-04-25T11:01:24;13.17;78.98
73875;HTU21D;62209;47.568;7.558;2023-04-25T11:16:30;15.55;75.73
73875;HTU21D;62209;47.568;7.558;2023-04-25T11:31:35;15.90;72.70
73875;HTU21D;62209;47.568;7.558;2023-04-25T11:46:42;14.93;72.95
73875;HTU21D;62209;47.568;7.558;2023-04-25T12:01:49;14.17;74.81
73875;HTU21D;62209;47.568;7.558;2023-04-25T12:16:56;13.12;82.14
73875;HTU21D;62209;47.568;7.558;2023-04-25T12:32:03;13.73;91.98
73875;HTU21D;62209;47.568;7.558;2023-04-25T12:47:09;15.83;81.07
73875;HTU21D;62209;47.568;7.558;2023-04-25T13:02:14;12.82;85.87
73875;HTU21D;62209;47.568;7.558;2023-04-25T13:17:20;14.28;85.64
73875;HTU21D;62209;47.568;7.558;2023-04-25T13:32:28;14.42;80.19
73875;HTU21D;62209;47.568;7.558;2023-04-25T13:47:33;13.96;82.52
73875;HTU21D;62209;47.568;7.558;2023-04-25T14:02:39;13.73;79.69
73875;HTU21D;62209;47.568;7.558;2023-04-25T14:17:45;15.17;80.05
73875;HTU21D;62209;47.568;7.558;2023-04-25T14:32:51;14.26;80.83
73875;HTU21D;62209;47.568;7.558;2023-04-25T14:47:57;13.15;82.07
73875;HTU21D;62209;47.568;7.558;2023-04-25T15:03:03;11.76;90.86
73875;HTU21D;62209;47.568;7.558;2023-04-25T15:18:11;11.87;92.66
73875;HTU21D;62209;47.568;7.558;2023-04-25T15:33:16;11.57;92.87
73875;HTU21D;62209;47.568;7.558;2023-04-25T15:48:22;12.19;90.31
73875;HTU21D;62209;47.568;7.558;2023-04-25T16:03:28;11.29;88.96
73875;HTU21D;62209;47.568;7.558;2023-04-25T16:18:38;10.87;91.85
73875;HTU21D;62209;47.568;7.558;2023-04-25T16:33:43;11.22;89.31
73875;HTU21D;62209;47.568;7.558;2023-04-25T16:48:49;11.63;88.51
73875;HTU21D;62209;47.568;7.558;2023-04-25T17:03:55;12.41;88.28
73875;HTU21D;62209;47.568;7.558;2023-04-25T17:19:01;12.19;86.42
73875;HTU21D;62209;47.568;7.558;2023-04-25T17:34:07;11.59;88.25
73875;HTU21D;62209;47.568;7.558;2023-04-25T17:49:18;10.21;92.58
73875;HTU21D;62209;47.568;7.558;2023-04-25T18:04:24;9.93;92.43
73875;HTU21D;62209;47.568;7.558;2023-04-25T18:19:30;9.39;94.31
73875;HTU21D;62209;47.568;7.558;2023-04-25T18:34:37;9.49;94.75
73875;HTU21D;62209;47.568;7.558;2023-04-25T18:49:46;9.46;95.95
73875;HTU21D;62209;47.568;7.558;2023-04-25T19:04:53;9.30;96.20
73875;HTU21D;62209;47.568;7.558;2023-04-25T19:19:58;9.34;98.00
73875;HTU21D;62209;47.568;7.558;2023-04-25T19:35:05;9.19;97.34
73875;HTU21D;62209;47.568;7.558;2023-04-25T19:50:14;9.04;98.18
73875;HTU21D;62209;47.568;7.558;2023-04-25T20:05:20;8.95;98.32
73875;HTU21D;62209;47.568;7.558;2023-04-25T20:20:26;9.04;98.05
73875;HTU21D;62209;47.568;7.558;2023-04-25T20:35:31;8.89;98.89
73875;HTU21D;62209;47.568;7.558;2023-04-25T20:50:37;8.57;98.69
73875;HTU21D;62209;47.568;7.558;2023-04-25T21:05:43;8.32;99.11
73875;HTU21D;62209;47.568;7.558;2023-04-25T21:20:49;8.00;99.38
73875;HTU21D;62209;47.568;7.558;2023-04-25T21:35:55;7.76;101.71
73875;HTU21D;62209;47.568;7.558;2023-04-25T21:51:00;7.29;101.59
73875;HTU21D;62209;47.568;7.558;2023-04-25T22:06:06;7.08;101.77
73875;HTU21D;62209;47.568;7.558;2023-04-25T22:21:12;7.02;103.38
73875;HTU21D;62209;47.568;7.558;2023-04-25T22:36:18;7.03;103.69
73875;HTU21D;62209;47.568;7.558;2023-04-25T22:51:26;6.65;103.73
73875;HTU21D;62209;47.568;7.558;2023-04-25T23:06:33;6.30;103.17
73875;HTU21D;62209;47.568;7.558;2023-04-25T23:21:40;6.19;103.23
73875;HTU21D;62209;47.568;7.558;2023-04-25T23:36:46;5.97;103.52
73875;HTU21D;62209;47.568;7.558;2023-04-25T23:51:51;6.20;104.53
